createdAt,value
2018-07-08T00:01:23.647Z,42.43
2018-07-08T00:03:52.292Z,43.11
2018-07-08T00:06:20.971Z,43.54
2018-07-08T00:08:49.561Z,43.25
2018-07-08T00:11:18.120Z,42.98
2018-07-08T00:13:46.664Z,43.21
2018-07-08T00:16:15.274Z,43.25
2018-07-08T00:18:43.813Z,43.55
2018-07-08T00:21:12.589Z,42.79
2018-07-08T00:23:41.136Z,43.09
2018-07-08T00:26:09.718Z,43.25
2018-07-08T00:28:38.227Z,43.13
2018-07-08T00:31:06.714Z,43.70
2018-07-08T00:33:35.201Z,44.08
2018-07-08T00:36:03.703Z,44.38
2018-07-08T00:38:32.275Z,44.92
2018-07-08T00:41:00.864Z,44.04
2018-07-08T00:43:29.475Z,43.92
2018-07-08T00:45:58.811Z,45.14
2018-07-08T00:48:27.435Z,44.67
2018-07-08T00:50:55.955Z,44.70
2018-07-08T00:53:24.440Z,45.31
2018-07-08T00:55:52.932Z,44.68
2018-07-08T00:58:21.519Z,45.22
2018-07-08T01:00:50.030Z,45.57
2018-07-08T01:03:18.607Z,45.01
2018-07-08T01:05:47.083Z,45.75
2018-07-08T01:08:15.571Z,46.18
2018-07-08T01:10:44.015Z,46.07
2018-07-08T01:13:12.493Z,46.17
2018-07-08T01:15:40.940Z,45.99
2018-07-08T01:18:09.518Z,46.26
2018-07-08T01:20:38.272Z,46.49
2018-07-08T01:23:06.822Z,46.56
2018-07-08T01:25:46.431Z,46.07
2018-07-08T01:28:14.988Z,46.65
2018-07-08T01:30:43.453Z,47.40
2018-07-08T01:33:11.971Z,47.18
2018-07-08T01:35:40.478Z,47.22
2018-07-08T01:38:08.978Z,47.44
2018-07-08T01:40:37.433Z,47.34
2018-07-08T01:43:06.002Z,46.96
2018-07-08T01:45:34.822Z,47.17
2018-07-08T01:48:03.423Z,47.98
2018-07-08T01:50:31.944Z,47.52
2018-07-08T01:53:00.503Z,47.88
2018-07-08T01:55:29.008Z,47.86
2018-07-08T01:57:57.539Z,47.58
2018-07-08T02:00:26.065Z,48.03
2018-07-08T02:02:54.576Z,47.48
2018-07-08T02:05:23.077Z,48.06
2018-07-08T02:07:51.662Z,47.37
2018-07-08T02:10:20.154Z,47.67
2018-07-08T02:12:48.691Z,47.69
2018-07-08T02:15:17.197Z,47.87
2018-07-08T02:17:45.763Z,48.49
2018-07-08T02:20:14.267Z,48.34
2018-07-08T02:22:42.807Z,47.86
2018-07-08T02:25:11.349Z,48.03
2018-07-08T02:27:39.888Z,48.20
2018-07-08T02:30:08.648Z,47.99
2018-07-08T02:32:37.612Z,48.61
2018-07-08T02:35:06.092Z,49.22
2018-07-08T02:37:34.567Z,49.20
2018-07-08T02:40:03.089Z,48.68
2018-07-08T02:42:31.618Z,48.85
2018-07-08T02:45:00.110Z,49.39
2018-07-08T02:47:28.677Z,49.42
2018-07-08T02:49:57.099Z,48.84
2018-07-08T02:52:25.614Z,48.96
2018-07-08T02:57:21.548Z,49.49
2018-07-08T02:59:50.030Z,49.45
2018-07-08T03:02:18.591Z,49.27
2018-07-08T03:04:47.059Z,49.43
2018-07-08T03:07:15.655Z,49.59
2018-07-08T03:09:44.162Z,49.85
2018-07-08T03:12:12.755Z,50.11
2018-07-08T03:14:41.380Z,49.91
2018-07-08T03:17:09.969Z,50.89
2018-07-08T03:19:38.703Z,51.38
2018-07-08T03:22:07.214Z,50.83
2018-07-08T03:24:35.769Z,51.41
2018-07-08T03:27:04.469Z,51.15
2018-07-08T03:29:33.044Z,51.16
2018-07-08T03:32:01.654Z,50.62
2018-07-08T03:34:30.276Z,51.29
2018-07-08T03:36:58.883Z,51.01
2018-07-08T03:39:27.507Z,51.50
2018-07-08T03:41:56.424Z,51.87
2018-07-08T03:44:25.094Z,52.26
2018-07-08T03:46:53.620Z,52.16
2018-07-08T03:49:22.268Z,51.48
2018-07-08T03:51:50.856Z,51.84
2018-07-08T03:54:27.166Z,51.97
2018-07-08T03:56:56.165Z,51.82
2018-07-08T03:59:24.885Z,52.08
2018-07-08T04:01:53.499Z,51.91
2018-07-08T04:04:22.163Z,52.25
2018-07-08T04:06:50.872Z,52.12
2018-07-08T04:09:20.819Z,52.23
2018-07-08T04:11:49.562Z,52.37
2018-07-08T04:14:18.144Z,52.21
2018-07-08T04:16:47.319Z,52.93
2018-07-08T04:19:15.936Z,52.97
2018-07-08T04:21:44.554Z,52.65
2018-07-08T04:24:13.198Z,52.27
2018-07-08T04:26:41.721Z,52.06
2018-07-08T04:29:10.255Z,52.66
2018-07-08T04:31:38.787Z,52.99
2018-07-08T04:34:07.331Z,52.47
2018-07-08T04:36:35.828Z,52.25
2018-07-08T04:39:05.213Z,52.25
2018-07-08T04:41:33.747Z,52.09
2018-07-08T04:44:02.285Z,51.95
2018-07-08T04:46:30.847Z,52.38
2018-07-08T04:48:59.419Z,51.71
2018-07-08T04:51:28.004Z,51.64
2018-07-08T04:53:56.705Z,52.27
2018-07-08T04:56:25.690Z,52.05
2018-07-08T04:58:54.359Z,51.72
2018-07-08T05:01:22.981Z,52.17
2018-07-08T05:03:51.662Z,52.36
2018-07-08T05:06:20.315Z,52.33
2018-07-08T05:08:48.968Z,52.26
2018-07-08T05:11:17.728Z,51.78
2018-07-08T05:13:46.444Z,52.07
2018-07-08T05:16:15.067Z,52.78
2018-07-08T05:18:43.682Z,52.02
2018-07-08T05:21:12.274Z,52.17
2018-07-08T05:23:41.172Z,52.10
2018-07-08T05:26:09.680Z,51.99
2018-07-08T05:28:38.312Z,52.46
2018-07-08T05:31:07.085Z,51.51
2018-07-08T05:33:35.683Z,50.83
2018-07-08T05:36:04.395Z,50.79
2018-07-08T05:38:33.228Z,50.46
2018-07-08T05:41:01.927Z,50.68
2018-07-08T05:43:30.742Z,50.69
2018-07-08T05:45:59.784Z,50.57
2018-07-08T05:48:28.467Z,50.65
2018-07-08T05:50:57.350Z,49.45
2018-07-08T05:53:26.000Z,49.75
2018-07-08T05:55:54.818Z,49.50
2018-07-08T05:58:23.419Z,48.35
2018-07-08T06:00:52.056Z,48.48
2018-07-08T06:03:20.878Z,47.18
2018-07-08T06:05:49.756Z,45.83
2018-07-08T06:08:18.275Z,44.93
2018-07-08T06:10:46.895Z,44.04
2018-07-08T06:13:15.429Z,44.94
2018-07-08T06:15:44.027Z,42.59
2018-07-08T06:18:12.655Z,42.93
2018-07-08T06:20:41.278Z,41.74
2018-07-08T06:23:09.826Z,40.83
2018-07-08T06:25:38.499Z,39.30
2018-07-08T06:28:07.632Z,38.61
2018-07-08T06:30:36.365Z,37.56
2018-07-08T06:33:05.069Z,36.20
2018-07-08T06:35:33.820Z,36.42
2018-07-08T06:38:02.530Z,37.24
2018-07-08T06:40:31.360Z,35.79
2018-07-08T06:43:00.163Z,35.61
2018-07-08T06:45:28.893Z,35.64
2018-07-08T06:47:57.503Z,35.42
2018-07-08T06:50:26.095Z,35.67
2018-07-08T06:52:54.685Z,35.43
2018-07-08T06:55:24.521Z,32.73
2018-07-08T06:57:53.188Z,32.61
2018-07-08T07:00:21.962Z,33.06
2018-07-08T07:02:50.606Z,32.91
2018-07-08T07:05:19.463Z,32.50
2018-07-08T07:07:48.214Z,31.57
2018-07-08T07:10:16.805Z,31.12
2018-07-08T07:12:46.506Z,30.35
2018-07-08T07:15:15.097Z,29.53
2018-07-08T07:17:43.851Z,31.96
2018-07-08T07:20:12.561Z,29.36
2018-07-08T07:22:41.169Z,28.93
2018-07-08T07:25:10.162Z,29.01
2018-07-08T07:27:38.988Z,28.32
2018-07-08T07:30:07.700Z,29.24
2018-07-08T07:32:36.317Z,28.07
2018-07-08T07:35:05.197Z,30.47
2018-07-08T07:37:34.077Z,28.88
2018-07-08T07:40:02.889Z,28.35
2018-07-08T07:42:31.668Z,25.67
2018-07-08T07:45:00.479Z,26.31
2018-07-08T07:47:30.427Z,26.87
2018-07-08T07:49:59.497Z,26.20
2018-07-08T07:52:29.341Z,25.22
2018-07-08T07:54:58.320Z,25.37
2018-07-08T07:57:27.039Z,24.61
2018-07-08T07:59:58.539Z,25.94
2018-07-08T08:02:27.779Z,26.83
2018-07-08T08:04:56.808Z,25.34
2018-07-08T08:07:26.264Z,23.43
2018-07-08T08:09:55.534Z,23.16
2018-07-08T08:12:24.557Z,23.19
2018-07-08T08:14:53.323Z,24.44
2018-07-08T08:17:22.062Z,23.24
2018-07-08T08:19:50.820Z,22.10
2018-07-08T08:22:20.439Z,22.80
2018-07-08T08:24:50.955Z,22.36
2018-07-08T08:27:19.720Z,23.77
2018-07-08T08:29:48.343Z,23.59
2018-07-08T08:32:17.409Z,23.51
2018-07-08T08:35:18.857Z,22.44
2018-07-08T08:37:49.405Z,22.14
2018-07-08T08:40:18.711Z,22.09
2018-07-08T08:42:47.272Z,20.55
2018-07-08T08:45:16.893Z,20.98
2018-07-08T08:47:45.407Z,19.74
2018-07-08T08:50:14.456Z,19.06
2018-07-08T08:52:43.105Z,19.02
2018-07-08T08:55:12.540Z,20.71
2018-07-08T08:57:41.173Z,17.97
2018-07-08T09:00:12.235Z,18.69
2018-07-08T09:02:40.930Z,19.23
2018-07-08T09:05:09.665Z,19.60
2018-07-08T09:07:38.301Z,18.70
2018-07-08T09:10:06.910Z,18.39
2018-07-08T09:12:35.613Z,17.04
2018-07-08T09:15:04.069Z,16.50
2018-07-08T09:17:32.678Z,16.75
2018-07-08T09:20:01.294Z,15.89
2018-07-08T09:22:29.969Z,15.86
2018-07-08T09:24:58.461Z,16.33
2018-07-08T09:27:27.119Z,15.36
2018-07-08T09:29:55.782Z,16.52
2018-07-08T09:32:24.570Z,15.36
2018-07-08T09:34:53.285Z,15.04
2018-07-08T09:37:21.983Z,15.85
2018-07-08T09:39:50.625Z,14.35
2018-07-08T09:42:19.761Z,13.78
2018-07-08T09:44:48.492Z,12.59
2018-07-08T09:47:17.093Z,13.05
2018-07-08T09:49:46.354Z,13.12
2018-07-08T09:52:15.257Z,12.34
2018-07-08T09:54:43.822Z,12.31
2018-07-08T09:57:12.366Z,11.90
2018-07-08T09:59:40.905Z,11.55
2018-07-08T10:02:09.558Z,12.04
2018-07-08T10:04:38.129Z,11.51
2018-07-08T10:07:06.554Z,11.17
2018-07-08T10:09:35.036Z,9.74
2018-07-08T10:12:03.517Z,10.23
2018-07-08T10:14:32.072Z,10.60
2018-07-08T10:17:00.638Z,10.63
2018-07-08T10:19:29.210Z,11.18
2018-07-08T10:21:57.667Z,10.05
2018-07-08T10:24:26.122Z,9.85
2018-07-08T10:27:05.733Z,9.79
2018-07-08T10:29:34.327Z,10.19
2018-07-08T10:32:02.827Z,9.45
2018-07-08T10:34:31.452Z,9.21
2018-07-08T10:36:59.969Z,8.36
2018-07-08T10:39:28.469Z,9.08
2018-07-08T10:41:56.936Z,8.72
2018-07-08T10:44:25.448Z,8.40
2018-07-08T10:46:54.311Z,8.52
2018-07-08T10:49:22.782Z,6.92
2018-07-08T10:51:51.230Z,7.29
2018-07-08T10:54:19.729Z,6.62
2018-07-08T10:56:48.211Z,6.52
2018-07-08T10:59:16.717Z,6.82
2018-07-08T11:01:45.256Z,7.31
2018-07-08T11:04:13.689Z,8.81
2018-07-08T11:06:42.309Z,8.94
2018-07-08T11:09:10.896Z,7.12
2018-07-08T11:11:39.578Z,8.22
2018-07-08T11:14:08.154Z,7.73
2018-07-08T11:16:36.710Z,8.65
2018-07-08T11:19:05.359Z,8.22
2018-07-08T11:21:34.104Z,7.98
2018-07-08T11:24:02.863Z,8.00
2018-07-08T11:26:31.541Z,8.30
2018-07-08T11:29:00.587Z,9.36
2018-07-08T11:31:30.345Z,10.33
2018-07-08T11:33:58.980Z,11.90
2018-07-08T11:36:27.683Z,12.16
2018-07-08T11:38:56.209Z,12.49
2018-07-08T11:41:24.774Z,13.58
2018-07-08T11:43:53.639Z,14.51
2018-07-08T11:46:22.159Z,15.28
2018-07-08T11:48:50.875Z,15.00
2018-07-08T11:51:19.768Z,16.14
2018-07-08T11:53:48.653Z,16.62
2018-07-08T11:56:17.306Z,17.34
2018-07-08T11:58:46.013Z,17.72
2018-07-08T12:01:14.703Z,17.61
2018-07-08T12:03:43.426Z,17.78
2018-07-08T12:06:12.058Z,18.97
2018-07-08T12:08:40.752Z,19.06
2018-07-08T12:11:09.530Z,19.81
2018-07-08T12:13:38.221Z,19.96
2018-07-08T12:16:06.832Z,20.63
2018-07-08T12:18:35.645Z,20.18
2018-07-08T12:21:04.423Z,20.77
2018-07-08T12:23:35.180Z,20.82
2018-07-08T12:26:03.956Z,21.70
2018-07-08T12:28:32.527Z,21.54
2018-07-08T12:31:02.111Z,22.35
2018-07-08T12:33:30.624Z,21.74
2018-07-08T12:35:59.208Z,22.35
2018-07-08T12:38:27.783Z,22.87
2018-07-08T12:40:56.447Z,23.32
2018-07-08T12:43:25.255Z,22.81
2018-07-08T12:45:53.867Z,23.07
2018-07-08T12:48:22.544Z,22.97
2018-07-08T12:50:51.465Z,23.71
2018-07-08T12:53:20.229Z,24.12
2018-07-08T12:55:48.886Z,23.15
2018-07-08T12:58:17.443Z,23.61
2018-07-08T13:00:45.970Z,23.71
2018-07-08T13:03:14.521Z,23.26
2018-07-08T13:05:43.049Z,24.18
2018-07-08T13:08:11.933Z,24.79
2018-07-08T13:10:40.709Z,24.48
2018-07-08T13:13:09.314Z,24.47
2018-07-08T13:15:37.935Z,23.97
2018-07-08T13:18:06.502Z,23.56
2018-07-08T13:20:35.155Z,24.06
2018-07-08T13:23:03.720Z,24.86
2018-07-08T13:25:32.319Z,24.90
2018-07-08T13:28:01.146Z,24.81
2018-07-08T13:30:29.884Z,23.70
2018-07-08T13:32:58.565Z,22.78
2018-07-08T13:35:27.276Z,24.14
2018-07-08T13:37:55.968Z,24.72
2018-07-08T13:40:24.692Z,23.93
2018-07-08T13:42:53.222Z,24.21
2018-07-08T13:45:21.755Z,25.43
2018-07-08T13:47:50.375Z,25.47
2018-07-08T13:50:19.326Z,25.40
2018-07-08T13:52:47.894Z,25.53
2018-07-08T13:55:16.462Z,25.30
2018-07-08T13:57:45.263Z,25.33
2018-07-08T14:00:13.910Z,24.52
2018-07-08T14:02:42.522Z,23.88
2018-07-08T14:05:11.078Z,25.08
2018-07-08T14:07:39.638Z,24.50
2018-07-08T14:10:08.252Z,24.17
2018-07-08T14:12:36.851Z,25.47
2018-07-08T14:15:05.410Z,25.14
2018-07-08T14:17:33.989Z,24.91
2018-07-08T14:20:02.561Z,24.87
2018-07-08T14:22:31.127Z,25.21
2018-07-08T14:24:59.678Z,24.72
2018-07-08T14:27:28.203Z,25.33
2018-07-08T14:29:56.717Z,25.59
2018-07-08T14:32:25.483Z,25.19
2018-07-08T14:34:54.169Z,26.56
2018-07-08T14:37:22.666Z,27.48
2018-07-08T14:39:51.170Z,26.61
2018-07-08T14:42:19.722Z,25.77
2018-07-08T14:44:48.320Z,25.47
2018-07-08T14:47:16.929Z,25.87
2018-07-08T14:49:45.583Z,24.77
2018-07-08T14:52:14.162Z,25.18
2018-07-08T14:54:42.867Z,24.53
2018-07-08T14:57:11.445Z,25.88
2018-07-08T14:59:40.005Z,26.61
2018-07-08T15:02:08.603Z,26.55
2018-07-08T15:04:37.568Z,26.73
2018-07-08T15:07:06.078Z,26.66
2018-07-08T15:09:34.588Z,26.54
2018-07-08T15:12:03.928Z,26.66
2018-07-08T15:14:32.412Z,26.18
2018-07-08T15:17:00.890Z,26.12
2018-07-08T15:19:29.303Z,27.40
2018-07-08T15:21:57.794Z,26.67
2018-07-08T15:24:26.218Z,27.06
2018-07-08T15:26:54.652Z,25.95
2018-07-08T15:29:23.175Z,26.41
2018-07-08T15:31:51.696Z,25.91
2018-07-08T15:34:20.192Z,26.05
2018-07-08T15:36:48.927Z,27.24
2018-07-08T15:39:17.459Z,27.25
2018-07-08T15:41:45.997Z,26.78
2018-07-08T15:44:14.507Z,26.49
2018-07-08T15:46:42.988Z,26.42
2018-07-08T15:49:11.454Z,27.68
2018-07-08T15:51:40.947Z,28.03
2018-07-08T15:54:09.424Z,27.04
2018-07-08T15:56:37.931Z,26.73
2018-07-08T15:59:07.001Z,25.88
2018-07-08T16:01:35.508Z,26.50
2018-07-08T16:04:04.076Z,27.16
2018-07-08T16:06:32.606Z,26.71
2018-07-08T16:14:41.861Z,26.36
2018-07-08T16:17:10.415Z,26.66
2018-07-08T16:19:39.100Z,26.69
2018-07-08T16:22:07.652Z,27.13
2018-07-08T16:24:36.244Z,27.41
2018-07-08T16:27:04.749Z,27.03
2018-07-08T16:29:33.231Z,27.74
2018-07-08T16:32:01.774Z,27.40
2018-07-08T16:34:30.294Z,27.85
2018-07-08T16:36:59.131Z,27.60
2018-07-08T16:39:27.646Z,28.04
2018-07-08T16:41:56.146Z,27.66
2018-07-08T16:44:24.663Z,28.09
2018-07-08T16:46:53.183Z,28.13
2018-07-08T16:49:21.702Z,27.99
2018-07-08T16:51:50.233Z,27.29
2018-07-08T16:54:18.724Z,28.35
2018-07-08T16:56:47.215Z,28.50
2018-07-08T16:59:15.818Z,28.19
2018-07-08T17:01:44.352Z,29.06
2018-07-08T17:04:12.917Z,28.70
2018-07-08T17:06:41.468Z,28.48
2018-07-08T17:09:10.820Z,28.58
2018-07-08T17:11:40.114Z,27.97
2018-07-08T17:14:08.703Z,28.64
2018-07-08T17:16:37.318Z,28.15
2018-07-08T17:19:06.481Z,28.21
2018-07-08T17:21:35.729Z,28.56
2018-07-08T17:24:04.413Z,28.67
2018-07-08T17:26:33.258Z,28.65
2018-07-08T17:29:01.949Z,29.16
2018-07-08T17:31:30.644Z,28.17
2018-07-08T17:33:59.297Z,28.97
2018-07-08T17:36:27.881Z,29.18
2018-07-08T17:38:56.427Z,28.42
2018-07-08T17:41:24.948Z,28.94
2018-07-08T17:43:53.538Z,29.03
2018-07-08T17:46:22.444Z,29.93
2018-07-08T17:48:51.226Z,28.70
2018-07-08T17:51:19.740Z,29.51
2018-07-08T17:53:48.289Z,29.19
2018-07-08T17:56:17.138Z,29.21
2018-07-08T17:58:45.722Z,29.98
2018-07-08T18:01:14.282Z,30.57
2018-07-08T18:03:42.860Z,30.22
2018-07-08T18:06:11.401Z,30.30
2018-07-08T18:08:39.891Z,29.92
2018-07-08T18:11:08.385Z,30.29
2018-07-08T18:13:37.266Z,31.00
2018-07-08T18:16:06.050Z,30.71
2018-07-08T18:18:34.890Z,30.64
2018-07-08T18:21:03.581Z,30.32
2018-07-08T18:23:32.399Z,30.11
2018-07-08T18:26:01.090Z,29.91
2018-07-08T18:28:29.793Z,30.67
2018-07-08T18:30:58.500Z,30.44
2018-07-08T18:33:27.151Z,30.23
2018-07-08T18:35:55.800Z,30.34
2018-07-08T18:38:24.598Z,30.96
2018-07-08T18:40:53.460Z,31.01
2018-07-08T18:43:23.301Z,30.81
2018-07-08T18:45:52.290Z,31.39
2018-07-08T18:48:21.866Z,31.65
2018-07-08T18:50:50.636Z,32.26
2018-07-08T18:53:19.540Z,31.70
2018-07-08T18:55:48.352Z,31.60
2018-07-08T18:58:17.329Z,31.92
2018-07-08T19:00:46.199Z,32.30
2018-07-08T19:03:14.982Z,31.64
2018-07-08T19:05:43.832Z,32.25
2018-07-08T19:08:12.562Z,33.09
2018-07-08T19:10:41.581Z,31.82
2018-07-08T19:13:10.441Z,32.50
2018-07-08T19:15:39.414Z,32.18
2018-07-08T19:18:08.752Z,32.38
2018-07-08T19:20:37.614Z,32.36
2018-07-08T19:23:06.968Z,33.33
2018-07-08T19:25:36.391Z,33.75
2018-07-08T19:28:05.193Z,32.83
2018-07-08T19:30:33.868Z,33.15
2018-07-08T19:33:02.893Z,32.97
2018-07-08T19:35:31.675Z,33.74
2018-07-08T19:38:00.489Z,34.03
2018-07-08T19:40:29.303Z,33.57
2018-07-08T19:42:57.925Z,32.86
2018-07-08T19:45:26.734Z,33.31
2018-07-08T19:47:55.430Z,34.05
2018-07-08T19:50:24.288Z,33.98
2018-07-08T19:52:52.990Z,33.54
2018-07-08T19:55:21.707Z,33.85
2018-07-08T19:57:51.540Z,33.88
2018-07-08T20:00:20.257Z,34.97
2018-07-08T20:02:48.977Z,34.80
2018-07-08T20:05:17.909Z,34.54
2018-07-08T20:07:46.667Z,34.99
2018-07-08T20:10:15.363Z,35.92
2018-07-08T20:12:43.987Z,34.84
2018-07-08T20:15:12.657Z,36.12
2018-07-08T20:17:41.499Z,36.53
2018-07-08T20:20:11.285Z,36.58
2018-07-08T20:22:40.328Z,35.49
2018-07-08T20:25:09.711Z,36.10
2018-07-08T20:27:38.605Z,36.08
2018-07-08T20:30:07.184Z,35.73
2018-07-08T20:32:35.876Z,35.76
2018-07-08T20:35:04.511Z,36.66
2018-07-08T20:37:33.429Z,36.54
2018-07-08T20:40:02.160Z,36.27
2018-07-08T20:42:31.123Z,37.13
2018-07-08T20:44:59.939Z,37.85
2018-07-08T20:47:28.736Z,37.70
2018-07-08T20:49:57.412Z,37.66
2018-07-08T20:52:26.303Z,37.55
2018-07-08T20:54:55.041Z,37.29
2018-07-08T20:57:23.735Z,38.16
2018-07-08T20:59:53.972Z,38.33
2018-07-08T21:02:22.761Z,37.80
2018-07-08T21:04:51.424Z,38.28
2018-07-08T21:07:20.316Z,38.24
2018-07-08T21:09:49.364Z,38.61
2018-07-08T21:12:18.340Z,38.07
2018-07-08T21:14:46.859Z,38.48
2018-07-08T21:17:15.420Z,38.39
2018-07-08T21:19:44.000Z,38.30
2018-07-08T21:22:12.601Z,38.71
2018-07-08T21:24:41.081Z,38.61
2018-07-08T21:27:09.747Z,38.22
2018-07-08T21:29:38.624Z,38.57
2018-07-08T21:32:07.290Z,39.36
2018-07-08T21:34:36.180Z,38.62
2018-07-08T21:37:04.802Z,39.42
2018-07-08T21:39:33.545Z,39.05
2018-07-08T21:42:02.167Z,38.29
2018-07-08T21:44:30.704Z,39.22
2018-07-08T21:46:59.380Z,38.41
2018-07-08T21:49:28.059Z,38.31
2018-07-08T21:51:56.749Z,38.24
2018-07-08T21:54:25.315Z,38.25
2018-07-08T21:56:53.877Z,37.97
2018-07-08T21:59:22.565Z,38.52
2018-07-08T22:01:59.548Z,39.03
2018-07-08T22:04:28.053Z,39.09
2018-07-08T22:07:00.765Z,38.65
2018-07-08T22:09:29.295Z,38.58
2018-07-08T22:11:57.955Z,39.40
2018-07-08T22:14:26.855Z,39.61
2018-07-08T22:16:55.692Z,39.51
2018-07-08T22:19:24.323Z,39.19
2018-07-08T22:21:52.962Z,40.17
2018-07-08T22:24:21.519Z,39.86
2018-07-08T22:26:50.158Z,39.63
2018-07-08T22:29:18.990Z,40.09
2018-07-08T22:31:47.609Z,39.63
2018-07-08T22:34:16.149Z,40.15
2018-07-08T22:36:44.759Z,40.04
2018-07-08T22:39:13.370Z,40.31
2018-07-08T22:41:41.980Z,40.09
2018-07-08T22:44:10.614Z,39.85
2018-07-08T22:46:39.209Z,39.87
2018-07-08T22:49:07.752Z,40.30
2018-07-08T22:51:36.335Z,40.04
2018-07-08T22:54:04.876Z,40.73
2018-07-08T22:56:33.441Z,40.57
2018-07-08T22:59:01.998Z,41.13
2018-07-08T23:01:41.671Z,40.74
2018-07-08T23:04:10.135Z,40.53
2018-07-08T23:06:38.632Z,40.89
2018-07-08T23:09:07.289Z,41.78
2018-07-08T23:11:35.824Z,41.47
2018-07-08T23:14:04.315Z,41.78
2018-07-08T23:16:32.847Z,41.78
2018-07-08T23:19:01.424Z,42.12
2018-07-08T23:21:29.931Z,42.20
2018-07-08T23:23:58.404Z,42.01
2018-07-08T23:26:26.926Z,42.07
2018-07-08T23:28:55.408Z,41.68
2018-07-08T23:31:23.964Z,42.01
2018-07-08T23:33:52.553Z,41.88
2018-07-08T23:36:21.028Z,42.34
2018-07-08T23:38:49.605Z,42.20
2018-07-08T23:41:18.265Z,42.29
2018-07-08T23:43:46.781Z,43.33
2018-07-08T23:46:15.285Z,42.77
2018-07-08T23:48:43.796Z,42.88
2018-07-08T23:51:12.346Z,43.58
2018-07-08T23:53:41.489Z,43.53
2018-07-08T23:56:10.012Z,42.92
2018-07-08T23:58:38.587Z,43.24
